Terminal Aerodrome Forecast
Issued by NWS Jackson, MS

Home | Current Version | Previous Version | Text Only | Print | Product List | Glossary On
Versions: 1 2 3 4 5 6 7 8 9 10 11 12 13 14 15 16 17
000
FTUS44 KJAN 280649 AAB
TAFJAN
TAF AMD
KJAN 280649Z 2807/2906 13003KT P6SM BKN003
     FM281000 15003KT 3SM BR OVC003
     FM281300 00000KT P6SM OVC007
     FM281500 15004KT P6SM SCT025
     FM281800 25005KT P6SM VCSH BKN050
     FM282300 VRB03KT P6SM FEW250=

USA.gov is the U.S. government's official web portal to all federal, state and local government web resources and services.